sensor_id;sensor_type;location;lat;lon;timestamp;temperature;humidity
58983;DHT22;44771;49.982;8.560;2023-03-16T00:04:44;-3.20;99.90
58983;DHT22;44771;49.982;8.560;2023-03-16T00:09:46;-3.30;99.90
58983;DHT22;44771;49.982;8.560;2023-03-16T00:14:48;-3.40;99.90
58983;DHT22;44771;49.982;8.560;2023-03-16T00:19:53;-3.30;99.90
58983;DHT22;44771;49.982;8.560;2023-03-16T00:24:55;-3.40;99.90
58983;DHT22;44771;49.982;8.560;2023-03-16T00:29:57;-3.40;99.90
58983;DHT22;44771;49.982;8.560;2023-03-16T00:35:01;-3.50;99.90
58983;DHT22;44771;49.982;8.560;2023-03-16T00:40:03;-3.30;99.90
58983;DHT22;44771;49.982;8.560;2023-03-16T00:45:06;-3.50;99.90
58983;DHT22;44771;49.982;8.560;2023-03-16T00:50:10;-3.50;99.90
58983;DHT22;44771;49.982;8.560;2023-03-16T00:55:12;-3.60;99.90
58983;DHT22;44771;49.982;8.560;2023-03-16T01:00:14;-3.70;99.90
58983;DHT22;44771;49.982;8.560;2023-03-16T01:05:17;-3.70;99.90
58983;DHT22;44771;49.982;8.560;2023-03-16T01:10:19;-3.50;99.90
58983;DHT22;44771;49.982;8.560;2023-03-16T01:15:21;-3.60;99.90
58983;DHT22;44771;49.982;8.560;2023-03-16T01:20:24;-3.70;99.90
58983;DHT22;44771;49.982;8.560;2023-03-16T01:25:26;-3.70;99.90
58983;DHT22;44771;49.982;8.560;2023-03-16T01:30:28;-3.70;99.90
58983;DHT22;44771;49.982;8.560;2023-03-16T01:35:31;-3.80;99.90
58983;DHT22;44771;49.982;8.560;2023-03-16T01:40:33;-3.80;99.90
58983;DHT22;44771;49.982;8.560;2023-03-16T01:46:11;-3.80;99.90
58983;DHT22;44771;49.982;8.560;2023-03-16T01:51:18;-3.80;99.90
58983;DHT22;44771;49.982;8.560;2023-03-16T01:56:25;-3.70;99.90
58983;DHT22;44771;49.982;8.560;2023-03-16T02:01:28;-3.70;99.90
58983;DHT22;44771;49.982;8.560;2023-03-16T02:06:31;-3.80;99.90
58983;DHT22;44771;49.982;8.560;2023-03-16T02:11:35;-3.70;99.90
58983;DHT22;44771;49.982;8.560;2023-03-16T02:16:37;-3.60;99.90
58983;DHT22;44771;49.982;8.560;2023-03-16T02:21:46;-3.70;99.90
58983;DHT22;44771;49.982;8.560;2023-03-16T02:26:52;-3.70;99.90
58983;DHT22;44771;49.982;8.560;2023-03-16T02:31:58;-3.80;99.90
58983;DHT22;44771;49.982;8.560;2023-03-16T02:37:00;-3.90;99.90
58983;DHT22;44771;49.982;8.560;2023-03-16T02:42:03;-4.00;99.90
58983;DHT22;44771;49.982;8.560;2023-03-16T02:47:12;-4.00;99.90
58983;DHT22;44771;49.982;8.560;2023-03-16T02:52:15;-3.90;99.90
58983;DHT22;44771;49.982;8.560;2023-03-16T02:57:17;-3.90;99.90
58983;DHT22;44771;49.982;8.560;2023-03-16T03:02:20;-3.70;99.90
58983;DHT22;44771;49.982;8.560;2023-03-16T03:07:22;-3.40;99.90
58983;DHT22;44771;49.982;8.560;2023-03-16T03:12:23;-3.50;99.90
58983;DHT22;44771;49.982;8.560;2023-03-16T03:17:27;-3.60;99.90
58983;DHT22;44771;49.982;8.560;2023-03-16T03:22:28;-3.60;99.90
58983;DHT22;44771;49.982;8.560;2023-03-16T03:27:30;-3.50;99.90
58983;DHT22;44771;49.982;8.560;2023-03-16T03:32:33;-3.40;99.90
58983;DHT22;44771;49.982;8.560;2023-03-16T03:37:35;-3.50;99.90
58983;DHT22;44771;49.982;8.560;2023-03-16T03:42:38;-3.60;99.90
58983;DHT22;44771;49.982;8.560;2023-03-16T03:47:42;-3.70;99.90
58983;DHT22;44771;49.982;8.560;2023-03-16T03:52:44;-3.70;99.90
58983;DHT22;44771;49.982;8.560;2023-03-16T03:57:45;-3.80;99.90
58983;DHT22;44771;49.982;8.560;2023-03-16T04:02:48;-3.70;99.90
58983;DHT22;44771;49.982;8.560;2023-03-16T04:07:50;-3.70;99.90
58983;DHT22;44771;49.982;8.560;2023-03-16T04:12:52;-3.60;99.90
58983;DHT22;44771;49.982;8.560;2023-03-16T04:17:55;-3.60;99.90
58983;DHT22;44771;49.982;8.560;2023-03-16T04:22:56;-3.60;99.90
58983;DHT22;44771;49.982;8.560;2023-03-16T04:27:58;-3.60;99.90
58983;DHT22;44771;49.982;8.560;2023-03-16T04:33:01;-3.40;99.90
58983;DHT22;44771;49.982;8.560;2023-03-16T04:38:03;-3.30;99.90
58983;DHT22;44771;49.982;8.560;2023-03-16T04:43:05;-3.50;99.90
58983;DHT22;44771;49.982;8.560;2023-03-16T04:48:08;-3.60;99.90
58983;DHT22;44771;49.982;8.560;2023-03-16T04:53:10;-3.70;99.90
58983;DHT22;44771;49.982;8.560;2023-03-16T04:58:11;-3.70;99.90
58983;DHT22;44771;49.982;8.560;2023-03-16T05:03:14;-3.70;99.90
58983;DHT22;44771;49.982;8.560;2023-03-16T05:08:16;-3.80;99.90
58983;DHT22;44771;49.982;8.560;2023-03-16T05:13:18;-3.90;99.90
58983;DHT22;44771;49.982;8.560;2023-03-16T05:18:21;-3.90;99.90
58983;DHT22;44771;49.982;8.560;2023-03-16T05:23:23;-3.80;99.90
58983;DHT22;44771;49.982;8.560;2023-03-16T05:28:25;-3.70;99.90
58983;DHT22;44771;49.982;8.560;2023-03-16T05:33:28;-3.60;99.90
58983;DHT22;44771;49.982;8.560;2023-03-16T05:38:30;-3.60;99.90
58983;DHT22;44771;49.982;8.560;2023-03-16T05:43:31;-3.40;99.90
58983;DHT22;44771;49.982;8.560;2023-03-16T05:48:34;-3.40;99.90
58983;DHT22;44771;49.982;8.560;2023-03-16T05:53:36;-3.30;99.90
58983;DHT22;44771;49.982;8.560;2023-03-16T05:58:38;-3.20;99.90
58983;DHT22;44771;49.982;8.560;2023-03-16T06:03:41;-3.10;99.90
58983;DHT22;44771;49.982;8.560;2023-03-16T06:08:43;-3.00;99.90
58983;DHT22;44771;49.982;8.560;2023-03-16T06:13:45;-2.90;99.90
58983;DHT22;44771;49.982;8.560;2023-03-16T06:18:48;-2.80;99.90
58983;DHT22;44771;49.982;8.560;2023-03-16T06:23:49;-2.70;99.90
58983;DHT22;44771;49.982;8.560;2023-03-16T06:28:51;-2.60;99.90
58983;DHT22;44771;49.982;8.560;2023-03-16T06:33:54;-2.50;99.90
58983;DHT22;44771;49.982;8.560;2023-03-16T06:38:56;-2.30;99.90
58983;DHT22;44771;49.982;8.560;2023-03-16T06:43:58;-2.10;99.90
58983;DHT22;44771;49.982;8.560;2023-03-16T06:49:01;-1.90;99.90
58983;DHT22;44771;49.982;8.560;2023-03-16T06:54:03;-1.70;99.90
58983;DHT22;44771;49.982;8.560;2023-03-16T06:59:04;-1.50;99.90
58983;DHT22;44771;49.982;8.560;2023-03-16T07:04:07;-1.30;99.90
58983;DHT22;44771;49.982;8.560;2023-03-16T07:09:10;-1.10;99.90
58983;DHT22;44771;49.982;8.560;2023-03-16T07:14:11;-0.70;99.90
58983;DHT22;44771;49.982;8.560;2023-03-16T07:19:15;-0.40;99.90
58983;DHT22;44771;49.982;8.560;2023-03-16T07:24:16;-0.20;99.90
58983;DHT22;44771;49.982;8.560;2023-03-16T07:29:18;0.00;99.90
58983;DHT22;44771;49.982;8.560;2023-03-16T07:34:22;0.20;99.90
58983;DHT22;44771;49.982;8.560;2023-03-16T07:39:23;0.50;99.90
58983;DHT22;44771;49.982;8.560;2023-03-16T07:44:25;0.80;99.90
58983;DHT22;44771;49.982;8.560;2023-03-16T07:49:28;0.90;99.90
58983;DHT22;44771;49.982;8.560;2023-03-16T07:54:30;1.00;99.90
58983;DHT22;44771;49.982;8.560;2023-03-16T07:59:32;1.10;99.90
58983;DHT22;44771;49.982;8.560;2023-03-16T08:04:36;1.30;99.90
58983;DHT22;44771;49.982;8.560;2023-03-16T08:09:37;1.40;99.90
58983;DHT22;44771;49.982;8.560;2023-03-16T08:14:39;1.70;99.90
58983;DHT22;44771;49.982;8.560;2023-03-16T08:19:42;2.00;99.90
58983;DHT22;44771;49.982;8.560;2023-03-16T08:24:44;2.60;99.90
58983;DHT22;44771;49.982;8.560;2023-03-16T08:29:50;2.90;99.90
58983;DHT22;44771;49.982;8.560;2023-03-16T08:34:53;3.10;99.90
58983;DHT22;44771;49.982;8.560;2023-03-16T08:39:55;3.40;99.90
58983;DHT22;44771;49.982;8.560;2023-03-16T08:44:56;3.80;99.90
58983;DHT22;44771;49.982;8.560;2023-03-16T08:49:59;4.00;99.90
58983;DHT22;44771;49.982;8.560;2023-03-16T08:55:02;4.10;99.90
58983;DHT22;44771;49.982;8.560;2023-03-16T09:00:07;4.40;99.90
58983;DHT22;44771;49.982;8.560;2023-03-16T09:05:12;5.20;99.90
58983;DHT22;44771;49.982;8.560;2023-03-16T09:10:14;5.30;99.90
58983;DHT22;44771;49.982;8.560;2023-03-16T09:15:16;5.80;99.90
58983;DHT22;44771;49.982;8.560;2023-03-16T09:20:20;6.40;99.90
58983;DHT22;44771;49.982;8.560;2023-03-16T09:25:35;6.80;99.90
58983;DHT22;44771;49.982;8.560;2023-03-16T09:30:37;7.10;99.90
58983;DHT22;44771;49.982;8.560;2023-03-16T09:35:40;7.10;99.90
58983;DHT22;44771;49.982;8.560;2023-03-16T09:40:42;6.80;99.90
58983;DHT22;44771;49.982;8.560;2023-03-16T09:45:50;6.80;99.90
58983;DHT22;44771;49.982;8.560;2023-03-16T09:50:58;7.30;99.90
58983;DHT22;44771;49.982;8.560;2023-03-16T09:56:03;7.50;99.90
58983;DHT22;44771;49.982;8.560;2023-03-16T10:01:10;7.90;99.90
58983;DHT22;44771;49.982;8.560;2023-03-16T10:06:15;7.80;99.30
58983;DHT22;44771;49.982;8.560;2023-03-16T10:11:25;7.70;98.40
58983;DHT22;44771;49.982;8.560;2023-03-16T10:16:32;7.90;98.00
58983;DHT22;44771;49.982;8.560;2023-03-16T10:21:39;8.30;96.70
58983;DHT22;44771;49.982;8.560;2023-03-16T10:26:42;8.70;98.10
58983;DHT22;44771;49.982;8.560;2023-03-16T10:31:44;9.50;92.30
58983;DHT22;44771;49.982;8.560;2023-03-16T10:36:48;9.90;93.40
58983;DHT22;44771;49.982;8.560;2023-03-16T10:41:55;10.20;90.00
58983;DHT22;44771;49.982;8.560;2023-03-16T10:47:00;10.40;90.40
58983;DHT22;44771;49.982;8.560;2023-03-16T10:52:11;10.60;90.20
58983;DHT22;44771;49.982;8.560;2023-03-16T10:57:23;11.20;86.20
58983;DHT22;44771;49.982;8.560;2023-03-16T11:02:30;11.60;83.10
58983;DHT22;44771;49.982;8.560;2023-03-16T11:07:35;11.90;79.30
58983;DHT22;44771;49.982;8.560;2023-03-16T11:12:37;10.70;81.80
58983;DHT22;44771;49.982;8.560;2023-03-16T11:17:42;11.00;80.00
58983;DHT22;44771;49.982;8.560;2023-03-16T11:22:47;11.00;86.60
58983;DHT22;44771;49.982;8.560;2023-03-16T11:27:52;12.10;76.70
58983;DHT22;44771;49.982;8.560;2023-03-16T11:32:56;12.50;76.80
58983;DHT22;44771;49.982;8.560;2023-03-16T11:38:10;12.10;78.00
58983;DHT22;44771;49.982;8.560;2023-03-16T11:43:32;12.50;80.70
58983;DHT22;44771;49.982;8.560;2023-03-16T11:48:41;10.90;80.30
58983;DHT22;44771;49.982;8.560;2023-03-16T11:53:54;11.10;84.50
58983;DHT22;44771;49.982;8.560;2023-03-16T11:59:21;11.80;80.00
58983;DHT22;44771;49.982;8.560;2023-03-16T12:04:39;12.40;77.50
58983;DHT22;44771;49.982;8.560;2023-03-16T12:10:08;12.70;70.70
58983;DHT22;44771;49.982;8.560;2023-03-16T12:15:22;12.70;71.40
58983;DHT22;44771;49.982;8.560;2023-03-16T12:20:28;12.00;71.10
58983;DHT22;44771;49.982;8.560;2023-03-16T12:25:36;12.20;72.10
58983;DHT22;44771;49.982;8.560;2023-03-16T12:30:47;12.30;71.60
58983;DHT22;44771;49.982;8.560;2023-03-16T12:35:55;12.50;72.00
58983;DHT22;44771;49.982;8.560;2023-03-16T12:41:10;12.80;68.80
58983;DHT22;44771;49.982;8.560;2023-03-16T12:46:21;13.20;69.70
58983;DHT22;44771;49.982;8.560;2023-03-16T12:51:33;13.00;67.50
58983;DHT22;44771;49.982;8.560;2023-03-16T12:56:43;12.30;76.80
58983;DHT22;44771;49.982;8.560;2023-03-16T13:01:49;13.40;70.70
58983;DHT22;44771;49.982;8.560;2023-03-16T13:07:01;14.20;63.70
58983;DHT22;44771;49.982;8.560;2023-03-16T13:12:05;13.70;67.20
58983;DHT22;44771;49.982;8.560;2023-03-16T13:17:25;14.50;64.80
58983;DHT22;44771;49.982;8.560;2023-03-16T13:22:30;13.60;64.40
58983;DHT22;44771;49.982;8.560;2023-03-16T13:27:34;13.60;69.00
58983;DHT22;44771;49.982;8.560;2023-03-16T13:32:37;13.70;68.50
58983;DHT22;44771;49.982;8.560;2023-03-16T13:37:42;12.60;71.50
58983;DHT22;44771;49.982;8.560;2023-03-16T13:42:47;12.50;71.40
58983;DHT22;44771;49.982;8.560;2023-03-16T13:47:49;12.40;68.10
58983;DHT22;44771;49.982;8.560;2023-03-16T13:52:55;12.10;80.00
58983;DHT22;44771;49.982;8.560;2023-03-16T13:57:59;12.40;71.30
58983;DHT22;44771;49.982;8.560;2023-03-16T14:03:10;12.50;71.00
58983;DHT22;44771;49.982;8.560;2023-03-16T14:08:15;12.80;62.40
58983;DHT22;44771;49.982;8.560;2023-03-16T14:13:25;12.40;63.30
58983;DHT22;44771;49.982;8.560;2023-03-16T14:18:35;12.20;64.00
58983;DHT22;44771;49.982;8.560;2023-03-16T14:23:40;12.10;62.60
58983;DHT22;44771;49.982;8.560;2023-03-16T14:28:55;12.30;63.30
58983;DHT22;44771;49.982;8.560;2023-03-16T14:33:59;12.40;62.30
58983;DHT22;44771;49.982;8.560;2023-03-16T14:39:09;12.30;61.40
58983;DHT22;44771;49.982;8.560;2023-03-16T14:44:20;12.40;59.80
58983;DHT22;44771;49.982;8.560;2023-03-16T14:49:25;12.70;60.60
58983;DHT22;44771;49.982;8.560;2023-03-16T14:54:27;12.80;59.60
58983;DHT22;44771;49.982;8.560;2023-03-16T14:59:30;12.70;60.10
58983;DHT22;44771;49.982;8.560;2023-03-16T15:04:34;12.70;61.70
58983;DHT22;44771;49.982;8.560;2023-03-16T15:09:38;12.80;60.60
58983;DHT22;44771;49.982;8.560;2023-03-16T15:14:42;12.70;58.80
58983;DHT22;44771;49.982;8.560;2023-03-16T15:19:44;12.50;59.20
58983;DHT22;44771;49.982;8.560;2023-03-16T15:24:46;12.60;60.20
58983;DHT22;44771;49.982;8.560;2023-03-16T15:29:49;12.30;60.30
58983;DHT22;44771;49.982;8.560;2023-03-16T15:34:51;12.10;61.30
58983;DHT22;44771;49.982;8.560;2023-03-16T15:39:52;12.10;62.40
58983;DHT22;44771;49.982;8.560;2023-03-16T15:44:55;11.90;64.00
58983;DHT22;44771;49.982;8.560;2023-03-16T15:49:57;11.80;63.70
58983;DHT22;44771;49.982;8.560;2023-03-16T15:54:59;11.80;64.50
58983;DHT22;44771;49.982;8.560;2023-03-16T16:00:03;11.80;65.00
58983;DHT22;44771;49.982;8.560;2023-03-16T16:05:07;11.90;65.30
58983;DHT22;44771;49.982;8.560;2023-03-16T16:10:11;11.80;64.80
58983;DHT22;44771;49.982;8.560;2023-03-16T16:15:18;11.50;68.00
58983;DHT22;44771;49.982;8.560;2023-03-16T16:20:23;11.40;70.10
58983;DHT22;44771;49.982;8.560;2023-03-16T16:25:27;11.10;72.10
58983;DHT22;44771;49.982;8.560;2023-03-16T16:30:33;10.90;72.90
58983;DHT22;44771;49.982;8.560;2023-03-16T16:35:35;10.80;74.00
58983;DHT22;44771;49.982;8.560;2023-03-16T16:40:38;10.70;75.40
58983;DHT22;44771;49.982;8.560;2023-03-16T16:45:41;10.50;76.60
58983;DHT22;44771;49.982;8.560;2023-03-16T16:50:43;10.40;77.60
58983;DHT22;44771;49.982;8.560;2023-03-16T16:55:45;10.30;77.70
58983;DHT22;44771;49.982;8.560;2023-03-16T17:00:50;10.20;79.20
58983;DHT22;44771;49.982;8.560;2023-03-16T17:05:54;10.10;80.00
58983;DHT22;44771;49.982;8.560;2023-03-16T17:10:56;9.90;82.10
58983;DHT22;44771;49.982;8.560;2023-03-16T17:15:59;9.80;83.00
58983;DHT22;44771;49.982;8.560;2023-03-16T17:21:01;9.70;84.20
58983;DHT22;44771;49.982;8.560;2023-03-16T17:26:11;9.60;86.20
58983;DHT22;44771;49.982;8.560;2023-03-16T17:31:19;9.40;87.00
58983;DHT22;44771;49.982;8.560;2023-03-16T17:36:21;9.30;89.00
58983;DHT22;44771;49.982;8.560;2023-03-16T17:41:25;9.20;90.20
58983;DHT22;44771;49.982;8.560;2023-03-16T17:46:29;9.00;91.70
58983;DHT22;44771;49.982;8.560;2023-03-16T17:51:31;8.80;92.40
58983;DHT22;44771;49.982;8.560;2023-03-16T17:56:33;8.80;93.00
58983;DHT22;44771;49.982;8.560;2023-03-16T18:01:36;8.50;94.00
58983;DHT22;44771;49.982;8.560;2023-03-16T18:06:38;8.20;96.00
58983;DHT22;44771;49.982;8.560;2023-03-16T18:11:40;8.00;97.00
58983;DHT22;44771;49.982;8.560;2023-03-16T18:16:44;8.10;97.30
58983;DHT22;44771;49.982;8.560;2023-03-16T18:21:47;7.90;98.30
58983;DHT22;44771;49.982;8.560;2023-03-16T18:26:49;7.80;98.30
58983;DHT22;44771;49.982;8.560;2023-03-16T18:31:53;7.50;99.50
58983;DHT22;44771;49.982;8.560;2023-03-16T18:36:56;7.60;99.40
58983;DHT22;44771;49.982;8.560;2023-03-16T18:41:58;7.70;99.30
58983;DHT22;44771;49.982;8.560;2023-03-16T18:47:02;7.50;99.80
58983;DHT22;44771;49.982;8.560;2023-03-16T18:52:13;7.30;99.90
58983;DHT22;44771;49.982;8.560;2023-03-16T18:57:18;7.20;99.90
58983;DHT22;44771;49.982;8.560;2023-03-16T19:02:26;7.00;99.90
58983;DHT22;44771;49.982;8.560;2023-03-16T19:07:33;6.90;99.90
58983;DHT22;44771;49.982;8.560;2023-03-16T19:12:35;6.70;99.90
58983;DHT22;44771;49.982;8.560;2023-03-16T19:17:38;6.60;99.90
58983;DHT22;44771;49.982;8.560;2023-03-16T19:22:40;6.70;99.90
58983;DHT22;44771;49.982;8.560;2023-03-16T19:27:42;6.50;99.90
58983;DHT22;44771;49.982;8.560;2023-03-16T19:32:46;6.40;99.90
58983;DHT22;44771;49.982;8.560;2023-03-16T19:37:48;6.40;99.90
58983;DHT22;44771;49.982;8.560;2023-03-16T19:42:50;6.40;99.90
58983;DHT22;44771;49.982;8.560;2023-03-16T19:47:53;6.50;99.90
58983;DHT22;44771;49.982;8.560;2023-03-16T19:52:57;6.60;99.90
58983;DHT22;44771;49.982;8.560;2023-03-16T19:58:01;6.60;99.90
58983;DHT22;44771;49.982;8.560;2023-03-16T20:03:08;6.70;99.90
58983;DHT22;44771;49.982;8.560;2023-03-16T20:08:22;6.60;99.90
58983;DHT22;44771;49.982;8.560;2023-03-16T20:13:24;6.60;99.90
58983;DHT22;44771;49.982;8.560;2023-03-16T20:18:27;6.20;99.90
58983;DHT22;44771;49.982;8.560;2023-03-16T20:23:29;6.20;99.90
58983;DHT22;44771;49.982;8.560;2023-03-16T20:28:33;6.10;99.90
58983;DHT22;44771;49.982;8.560;2023-03-16T20:33:37;5.90;99.90
58983;DHT22;44771;49.982;8.560;2023-03-16T20:38:39;6.00;99.90
58983;DHT22;44771;49.982;8.560;2023-03-16T20:43:41;5.90;99.90
58983;DHT22;44771;49.982;8.560;2023-03-16T20:48:44;5.80;99.90
58983;DHT22;44771;49.982;8.560;2023-03-16T20:53:48;5.50;99.90
58983;DHT22;44771;49.982;8.560;2023-03-16T20:58:51;4.90;99.90
58983;DHT22;44771;49.982;8.560;2023-03-16T21:03:55;4.80;99.90
58983;DHT22;44771;49.982;8.560;2023-03-16T21:08:59;4.80;99.90
58983;DHT22;44771;49.982;8.560;2023-03-16T21:14:01;4.70;99.90
58983;DHT22;44771;49.982;8.560;2023-03-16T21:19:11;4.70;99.90
58983;DHT22;44771;49.982;8.560;2023-03-16T21:24:13;4.40;99.90
58983;DHT22;44771;49.982;8.560;2023-03-16T21:29:18;4.00;99.90
58983;DHT22;44771;49.982;8.560;2023-03-16T21:34:24;3.70;99.90
58983;DHT22;44771;49.982;8.560;2023-03-16T21:39:26;3.80;99.90
58983;DHT22;44771;49.982;8.560;2023-03-16T21:44:28;3.50;99.90
58983;DHT22;44771;49.982;8.560;2023-03-16T21:49:31;3.30;99.90
58983;DHT22;44771;49.982;8.560;2023-03-16T21:54:33;3.00;99.90
58983;DHT22;44771;49.982;8.560;2023-03-16T21:59:35;2.80;99.90
58983;DHT22;44771;49.982;8.560;2023-03-16T22:04:38;2.80;99.90
58983;DHT22;44771;49.982;8.560;2023-03-16T22:09:40;2.70;99.90
58983;DHT22;44771;49.982;8.560;2023-03-16T22:14:44;2.70;99.90
58983;DHT22;44771;49.982;8.560;2023-03-16T22:19:47;2.60;99.90
58983;DHT22;44771;49.982;8.560;2023-03-16T22:24:49;2.50;99.90
58983;DHT22;44771;49.982;8.560;2023-03-16T22:29:51;2.30;99.90
58983;DHT22;44771;49.982;8.560;2023-03-16T22:34:55;2.20;99.90
58983;DHT22;44771;49.982;8.560;2023-03-16T22:39:57;2.10;99.90
58983;DHT22;44771;49.982;8.560;2023-03-16T22:45:01;2.00;99.90
58983;DHT22;44771;49.982;8.560;2023-03-16T22:50:05;1.90;99.90
58983;DHT22;44771;49.982;8.560;2023-03-16T22:55:14;1.90;99.90
58983;DHT22;44771;49.982;8.560;2023-03-16T23:00:18;1.80;99.90
58983;DHT22;44771;49.982;8.560;2023-03-16T23:05:23;1.70;99.90
58983;DHT22;44771;49.982;8.560;2023-03-16T23:10:26;1.60;99.90
58983;DHT22;44771;49.982;8.560;2023-03-16T23:15:29;1.70;99.90
58983;DHT22;44771;49.982;8.560;2023-03-16T23:20:33;1.70;99.90
58983;DHT22;44771;49.982;8.560;2023-03-16T23:25:37;1.70;99.90
58983;DHT22;44771;49.982;8.560;2023-03-16T23:30:39;1.60;99.90
58983;DHT22;44771;49.982;8.560;2023-03-16T23:35:42;1.70;99.90
58983;DHT22;44771;49.982;8.560;2023-03-16T23:40:43;1.80;99.90
58983;DHT22;44771;49.982;8.560;2023-03-16T23:45:46;1.90;99.90
58983;DHT22;44771;49.982;8.560;2023-03-16T23:50:51;2.10;99.90
58983;DHT22;44771;49.982;8.560;2023-03-16T23:55:54;2.00;99.90
